sensor_id;sensor_type;location;lat;lon;timestamp;pressure;altitude;pressure_sealevel;temperature;humidity
76128;BME280;64873;50.102;14.434;2023-05-10T00:00:11;98992.59;;;10.04;57.54
76128;BME280;64873;50.102;14.434;2023-05-10T00:02:37;98973.16;;;9.97;57.72
76128;BME280;64873;50.102;14.434;2023-05-10T00:05:03;98979.91;;;10.00;57.96
76128;BME280;64873;50.102;14.434;2023-05-10T00:07:28;98972.94;;;9.99;57.80
76128;BME280;64873;50.102;14.434;2023-05-10T00:09:53;98972.94;;;9.99;57.67
76128;BME280;64873;50.102;14.434;2023-05-10T00:12:19;98971.56;;;9.89;57.76
76128;BME280;64873;50.102;14.434;2023-05-10T00:14:44;98981.59;;;9.94;58.26
76128;BME280;64873;50.102;14.434;2023-05-10T00:17:10;98977.97;;;9.88;58.37
76128;BME280;64873;50.102;14.434;2023-05-10T00:19:35;98975.34;;;9.82;58.39
76128;BME280;64873;50.102;14.434;2023-05-10T00:22:01;98968.59;;;9.79;58.21
76128;BME280;64873;50.102;14.434;2023-05-10T00:24:26;98975.63;;;9.74;58.68
76128;BME280;64873;50.102;14.434;2023-05-10T00:26:52;98957.59;;;9.69;58.89
76128;BME280;64873;50.102;14.434;2023-05-10T00:29:17;98976.00;;;9.77;58.65
76128;BME280;64873;50.102;14.434;2023-05-10T00:31:42;98974.81;;;9.73;59.11
76128;BME280;64873;50.102;14.434;2023-05-10T00:34:08;98974.66;;;9.68;59.18
76128;BME280;64873;50.102;14.434;2023-05-10T00:36:33;98968.28;;;9.69;59.25
76128;BME280;64873;50.102;14.434;2023-05-10T00:38:59;98968.34;;;9.63;59.74
76128;BME280;64873;50.102;14.434;2023-05-10T00:41:24;98960.41;;;9.56;59.53
76128;BME280;64873;50.102;14.434;2023-05-10T00:43:49;98957.09;;;9.54;59.48
76128;BME280;64873;50.102;14.434;2023-05-10T00:46:15;98970.03;;;9.57;59.82
76128;BME280;64873;50.102;14.434;2023-05-10T00:48:41;98952.81;;;9.53;59.76
76128;BME280;64873;50.102;14.434;2023-05-10T00:51:07;98954.44;;;9.54;59.83
76128;BME280;64873;50.102;14.434;2023-05-10T00:53:34;98955.31;;;9.48;59.67
76128;BME280;64873;50.102;14.434;2023-05-10T00:55:59;98946.31;;;9.42;60.00
76128;BME280;64873;50.102;14.434;2023-05-10T00:58:25;98952.88;;;9.46;59.91
76128;BME280;64873;50.102;14.434;2023-05-10T01:00:54;98955.16;;;9.43;60.43
76128;BME280;64873;50.102;14.434;2023-05-10T01:03:21;98945.34;;;9.37;60.45
76128;BME280;64873;50.102;14.434;2023-05-10T01:05:46;98948.41;;;9.40;60.36
76128;BME280;64873;50.102;14.434;2023-05-10T01:08:12;98945.03;;;9.26;60.30
76128;BME280;64873;50.102;14.434;2023-05-10T01:10:37;98949.91;;;9.29;60.42
76128;BME280;64873;50.102;14.434;2023-05-10T01:13:03;98948.81;;;9.37;60.58
76128;BME280;64873;50.102;14.434;2023-05-10T01:15:29;98948.47;;;9.33;60.58
76128;BME280;64873;50.102;14.434;2023-05-10T01:17:55;98940.34;;;9.22;60.76
76128;BME280;64873;50.102;14.434;2023-05-10T01:20:21;98952.41;;;9.24;60.56
76128;BME280;64873;50.102;14.434;2023-05-10T01:31:30;98931.78;;;9.13;61.19
76128;BME280;64873;50.102;14.434;2023-05-10T01:34:09;98929.75;;;9.08;61.00
76128;BME280;64873;50.102;14.434;2023-05-10T01:36:49;98920.94;;;9.08;61.14
76128;BME280;64873;50.102;14.434;2023-05-10T01:42:10;98928.16;;;9.01;61.48
76128;BME280;64873;50.102;14.434;2023-05-10T01:47:32;98929.78;;;9.02;61.79
76128;BME280;64873;50.102;14.434;2023-05-10T01:50:01;98934.72;;;9.05;61.68
76128;BME280;64873;50.102;14.434;2023-05-10T01:52:32;98910.97;;;8.97;61.88
76128;BME280;64873;50.102;14.434;2023-05-10T01:55:04;98930.84;;;9.01;61.98
76128;BME280;64873;50.102;14.434;2023-05-10T01:57:34;98918.63;;;8.87;62.47
76128;BME280;64873;50.102;14.434;2023-05-10T02:00:04;98926.13;;;8.96;62.25
76128;BME280;64873;50.102;14.434;2023-05-10T02:02:35;98917.59;;;8.88;62.44
76128;BME280;64873;50.102;14.434;2023-05-10T02:05:03;98916.38;;;8.84;62.36
76128;BME280;64873;50.102;14.434;2023-05-10T02:07:32;98919.31;;;8.75;62.77
76128;BME280;64873;50.102;14.434;2023-05-10T02:09:59;98933.63;;;8.81;62.70
76128;BME280;64873;50.102;14.434;2023-05-10T02:12:26;98919.28;;;8.82;62.70
76128;BME280;64873;50.102;14.434;2023-05-10T02:14:53;98918.50;;;8.75;62.77
76128;BME280;64873;50.102;14.434;2023-05-10T02:17:20;98924.47;;;8.70;62.85
76128;BME280;64873;50.102;14.434;2023-05-10T02:19:46;98931.19;;;8.79;63.01
76128;BME280;64873;50.102;14.434;2023-05-10T02:22:12;98931.00;;;8.74;63.19
76128;BME280;64873;50.102;14.434;2023-05-10T02:24:39;98924.19;;;8.78;63.38
76128;BME280;64873;50.102;14.434;2023-05-10T02:27:06;98935.34;;;8.69;63.62
76128;BME280;64873;50.102;14.434;2023-05-10T02:29:32;98917.94;;;8.60;63.24
76128;BME280;64873;50.102;14.434;2023-05-10T02:31:59;98921.03;;;8.63;63.89
76128;BME280;64873;50.102;14.434;2023-05-10T02:34:26;98916.72;;;8.62;63.51
76128;BME280;64873;50.102;14.434;2023-05-10T02:36:53;98922.06;;;8.62;63.69
76128;BME280;64873;50.102;14.434;2023-05-10T02:39:19;98928.59;;;8.60;63.80
76128;BME280;64873;50.102;14.434;2023-05-10T02:41:47;98920.63;;;8.60;64.24
76128;BME280;64873;50.102;14.434;2023-05-10T02:44:15;98919.59;;;8.61;63.97
76128;BME280;64873;50.102;14.434;2023-05-10T02:46:42;98903.47;;;8.49;64.17
76128;BME280;64873;50.102;14.434;2023-05-10T02:49:08;98912.47;;;8.48;64.33
76128;BME280;64873;50.102;14.434;2023-05-10T02:51:35;98919.03;;;8.52;64.62
76128;BME280;64873;50.102;14.434;2023-05-10T02:54:19;98909.03;;;8.41;64.13
76128;BME280;64873;50.102;14.434;2023-05-10T02:56:57;98924.16;;;8.47;64.62
76128;BME280;64873;50.102;14.434;2023-05-10T02:59:23;98914.72;;;8.51;64.45
76128;BME280;64873;50.102;14.434;2023-05-10T03:01:49;98918.63;;;8.48;64.82
76128;BME280;64873;50.102;14.434;2023-05-10T03:04:14;98916.78;;;8.49;64.71
76128;BME280;64873;50.102;14.434;2023-05-10T03:06:40;98917.44;;;8.44;64.48
76128;BME280;64873;50.102;14.434;2023-05-10T03:09:06;98912.47;;;8.48;64.56
76128;BME280;64873;50.102;14.434;2023-05-10T03:11:54;98917.81;;;8.48;64.68
76128;BME280;64873;50.102;14.434;2023-05-10T03:16:56;98904.53;;;8.35;65.16
76128;BME280;64873;50.102;14.434;2023-05-10T03:19:28;98900.63;;;8.37;65.04
76128;BME280;64873;50.102;14.434;2023-05-10T03:21:59;98910.84;;;8.47;64.54
76128;BME280;64873;50.102;14.434;2023-05-10T03:24:27;98884.66;;;8.31;65.19
76128;BME280;64873;50.102;14.434;2023-05-10T03:26:55;98902.69;;;8.42;64.89
76128;BME280;64873;50.102;14.434;2023-05-10T03:29:26;98898.97;;;8.43;65.13
76128;BME280;64873;50.102;14.434;2023-05-10T03:31:52;98911.09;;;8.39;65.07
76128;BME280;64873;50.102;14.434;2023-05-10T03:34:23;98905.13;;;8.43;65.17
76128;BME280;64873;50.102;14.434;2023-05-10T03:36:48;98916.59;;;8.44;65.40
76128;BME280;64873;50.102;14.434;2023-05-10T03:39:14;98918.06;;;8.40;65.45
76128;BME280;64873;50.102;14.434;2023-05-10T03:41:39;98923.56;;;8.38;65.63
76128;BME280;64873;50.102;14.434;2023-05-10T03:44:05;98924.78;;;8.42;65.56
76128;BME280;64873;50.102;14.434;2023-05-10T03:46:30;98918.25;;;8.45;65.49
76128;BME280;64873;50.102;14.434;2023-05-10T03:48:56;98932.56;;;8.44;65.12
76128;BME280;64873;50.102;14.434;2023-05-10T03:51:21;98916.59;;;8.44;65.05
76128;BME280;64873;50.102;14.434;2023-05-10T03:53:47;98929.22;;;8.55;64.90
76128;BME280;64873;50.102;14.434;2023-05-10T03:56:12;98928.03;;;8.51;64.72
76128;BME280;64873;50.102;14.434;2023-05-10T03:58:38;98931.72;;;8.57;64.96
76128;BME280;64873;50.102;14.434;2023-05-10T04:01:03;98920.25;;;8.56;64.91
76128;BME280;64873;50.102;14.434;2023-05-10T04:03:28;98930.03;;;8.62;65.22
76128;BME280;64873;50.102;14.434;2023-05-10T04:06:00;98919.41;;;8.55;65.42
76128;BME280;64873;50.102;14.434;2023-05-10T04:08:26;98931.47;;;8.65;65.14
76128;BME280;64873;50.102;14.434;2023-05-10T04:10:52;98936.97;;;8.70;64.86
76128;BME280;64873;50.102;14.434;2023-05-10T04:13:17;98912.84;;;8.58;64.60
76128;BME280;64873;50.102;14.434;2023-05-10T04:15:43;98923.06;;;8.68;64.93
76128;BME280;64873;50.102;14.434;2023-05-10T04:18:08;98925.22;;;8.77;65.16
76128;BME280;64873;50.102;14.434;2023-05-10T04:20:34;98923.59;;;8.76;65.02
76128;BME280;64873;50.102;14.434;2023-05-10T04:22:59;98905.38;;;8.73;65.05
76128;BME280;64873;50.102;14.434;2023-05-10T04:25:25;98931.34;;;8.85;64.72
76128;BME280;64873;50.102;14.434;2023-05-10T04:27:50;98916.38;;;8.84;64.87
76128;BME280;64873;50.102;14.434;2023-05-10T04:30:16;98913.69;;;8.90;64.39
76128;BME280;64873;50.102;14.434;2023-05-10T04:32:42;98923.28;;;8.98;64.63
76128;BME280;64873;50.102;14.434;2023-05-10T04:35:07;98919.59;;;8.99;64.54
76128;BME280;64873;50.102;14.434;2023-05-10T04:37:34;98922.59;;;9.09;64.11
76128;BME280;64873;50.102;14.434;2023-05-10T04:39:59;98906.63;;;9.02;64.17
76128;BME280;64873;50.102;14.434;2023-05-10T04:42:25;98920.69;;;9.16;64.06
76128;BME280;64873;50.102;14.434;2023-05-10T04:44:50;98898.16;;;9.12;63.63
76128;BME280;64873;50.102;14.434;2023-05-10T04:47:17;98901.16;;;9.22;63.75
76128;BME280;64873;50.102;14.434;2023-05-10T04:49:42;98905.03;;;9.26;63.50
76128;BME280;64873;50.102;14.434;2023-05-10T04:52:08;98912.31;;;9.38;63.20
76128;BME280;64873;50.102;14.434;2023-05-10T04:54:33;98911.81;;;9.47;62.78
76128;BME280;64873;50.102;14.434;2023-05-10T04:56:59;98910.13;;;9.53;63.12
76128;BME280;64873;50.102;14.434;2023-05-10T04:59:25;98903.50;;;9.62;62.54
76128;BME280;64873;50.102;14.434;2023-05-10T05:01:50;98915.34;;;9.66;62.33
76128;BME280;64873;50.102;14.434;2023-05-10T05:04:16;98917.13;;;9.72;62.38
76128;BME280;64873;50.102;14.434;2023-05-10T05:06:41;98917.22;;;9.84;61.96
76128;BME280;64873;50.102;14.434;2023-05-10T05:09:07;98924.34;;;9.90;62.03
76128;BME280;64873;50.102;14.434;2023-05-10T05:11:32;98918.97;;;9.97;61.80
76128;BME280;64873;50.102;14.434;2023-05-10T05:13:58;98913.31;;;10.05;61.20
76128;BME280;64873;50.102;14.434;2023-05-10T05:16:24;98911.84;;;10.09;61.24
76128;BME280;64873;50.102;14.434;2023-05-10T05:18:49;98918.50;;;10.18;61.34
76128;BME280;64873;50.102;14.434;2023-05-10T05:21:16;98910.25;;;10.26;60.85
76128;BME280;64873;50.102;14.434;2023-05-10T05:23:42;98922.41;;;10.40;60.41
76128;BME280;64873;50.102;14.434;2023-05-10T05:26:07;98916.72;;;10.49;60.41
76128;BME280;64873;50.102;14.434;2023-05-10T05:28:33;98926.22;;;10.63;59.90
76128;BME280;64873;50.102;14.434;2023-05-10T05:31:02;98927.19;;;10.68;59.91
76128;BME280;64873;50.102;14.434;2023-05-10T05:33:27;98931.84;;;10.73;59.60
76128;BME280;64873;50.102;14.434;2023-05-10T05:35:53;98927.81;;;10.82;59.12
76128;BME280;64873;50.102;14.434;2023-05-10T05:38:18;98926.22;;;10.93;58.94
76128;BME280;64873;50.102;14.434;2023-05-10T05:40:44;98919.16;;;10.99;58.85
76128;BME280;64873;50.102;14.434;2023-05-10T05:43:10;98912.75;;;11.00;58.89
76128;BME280;64873;50.102;14.434;2023-05-10T05:45:36;98919.53;;;11.14;58.47
76128;BME280;64873;50.102;14.434;2023-05-10T05:48:01;98916.84;;;11.14;58.35
76128;BME280;64873;50.102;14.434;2023-05-10T05:50:27;98917.09;;;11.12;58.71
76128;BME280;64873;50.102;14.434;2023-05-10T05:52:52;98922.69;;;11.23;58.28
76128;BME280;64873;50.102;14.434;2023-05-10T05:55:17;98925.41;;;11.34;58.30
76128;BME280;64873;50.102;14.434;2023-05-10T05:57:43;98917.63;;;11.44;57.97
76128;BME280;64873;50.102;14.434;2023-05-10T06:00:08;98922.63;;;11.53;57.94
76128;BME280;64873;50.102;14.434;2023-05-10T06:02:34;98915.06;;;11.50;58.02
76128;BME280;64873;50.102;14.434;2023-05-10T06:05:00;98923.00;;;11.68;57.81
76128;BME280;64873;50.102;14.434;2023-05-10T06:07:25;98929.28;;;11.73;57.49
76128;BME280;64873;50.102;14.434;2023-05-10T06:09:50;98924.88;;;11.79;57.43
76128;BME280;64873;50.102;14.434;2023-05-10T06:12:16;98923.97;;;11.85;57.32
76128;BME280;64873;50.102;14.434;2023-05-10T06:14:41;98925.72;;;11.91;57.24
76128;BME280;64873;50.102;14.434;2023-05-10T06:17:07;98913.81;;;11.99;57.26
76128;BME280;64873;50.102;14.434;2023-05-10T06:19:32;98919.97;;;11.99;56.97
76128;BME280;64873;50.102;14.434;2023-05-10T06:21:58;98923.47;;;12.12;56.88
76128;BME280;64873;50.102;14.434;2023-05-10T06:24:23;98923.44;;;12.23;56.83
76128;BME280;64873;50.102;14.434;2023-05-10T06:26:48;98905.97;;;12.21;56.77
76128;BME280;64873;50.102;14.434;2023-05-10T06:29:15;98923.16;;;12.37;56.45
76128;BME280;64873;50.102;14.434;2023-05-10T06:31:40;98904.91;;;12.34;56.49
76128;BME280;64873;50.102;14.434;2023-05-10T06:34:06;98914.44;;;12.41;56.26
76128;BME280;64873;50.102;14.434;2023-05-10T06:36:33;98916.81;;;12.54;56.15
76128;BME280;64873;50.102;14.434;2023-05-10T06:38:58;98915.25;;;12.70;55.85
76128;BME280;64873;50.102;14.434;2023-05-10T06:41:24;98917.22;;;12.75;55.77
76128;BME280;64873;50.102;14.434;2023-05-10T06:43:49;98906.00;;;12.78;55.43
76128;BME280;64873;50.102;14.434;2023-05-10T06:46:14;98905.03;;;12.96;55.25
76128;BME280;64873;50.102;14.434;2023-05-10T06:48:40;98913.06;;;13.13;54.84
76128;BME280;64873;50.102;14.434;2023-05-10T06:51:05;98906.84;;;13.24;54.89
76128;BME280;64873;50.102;14.434;2023-05-10T06:53:30;98906.72;;;13.19;54.89
76128;BME280;64873;50.102;14.434;2023-05-10T06:55:56;98901.09;;;13.32;54.70
76128;BME280;64873;50.102;14.434;2023-05-10T06:58:21;98902.22;;;13.36;54.67
76128;BME280;64873;50.102;14.434;2023-05-10T07:00:47;98908.25;;;13.43;54.43
76128;BME280;64873;50.102;14.434;2023-05-10T07:03:12;98903.19;;;13.64;53.77
76128;BME280;64873;50.102;14.434;2023-05-10T07:05:38;98891.13;;;13.83;52.77
76128;BME280;64873;50.102;14.434;2023-05-10T07:08:03;98902.47;;;14.07;52.12
76128;BME280;64873;50.102;14.434;2023-05-10T07:10:29;98897.56;;;14.21;51.13
76128;BME280;64873;50.102;14.434;2023-05-10T07:12:55;98890.97;;;14.11;51.35
76128;BME280;64873;50.102;14.434;2023-05-10T07:15:20;98901.31;;;14.20;51.09
76128;BME280;64873;50.102;14.434;2023-05-10T07:17:45;98893.34;;;14.30;50.25
76128;BME280;64873;50.102;14.434;2023-05-10T07:20:11;98891.66;;;14.24;50.44
76128;BME280;64873;50.102;14.434;2023-05-10T07:22:37;98891.66;;;14.24;50.43
76128;BME280;64873;50.102;14.434;2023-05-10T07:25:02;98883.03;;;14.22;50.11
76128;BME280;64873;50.102;14.434;2023-05-10T07:27:28;98904.06;;;14.47;49.85
76128;BME280;64873;50.102;14.434;2023-05-10T07:29:53;98888.66;;;14.42;49.96
76128;BME280;64873;50.102;14.434;2023-05-10T07:32:20;98891.56;;;14.57;49.89
76128;BME280;64873;50.102;14.434;2023-05-10T07:34:45;98910.56;;;14.73;49.29
76128;BME280;64873;50.102;14.434;2023-05-10T07:37:11;98893.31;;;14.69;49.31
76128;BME280;64873;50.102;14.434;2023-05-10T07:39:36;98911.28;;;14.90;48.96
76128;BME280;64873;50.102;14.434;2023-05-10T07:42:02;98892.41;;;14.85;48.79
76128;BME280;64873;50.102;14.434;2023-05-10T07:44:28;98883.84;;;14.93;49.01
76128;BME280;64873;50.102;14.434;2023-05-10T07:46:53;98895.22;;;15.00;48.96
76128;BME280;64873;50.102;14.434;2023-05-10T07:49:18;98896.34;;;15.04;49.11
76128;BME280;64873;50.102;14.434;2023-05-10T07:51:44;98886.53;;;15.20;48.27
76128;BME280;64873;50.102;14.434;2023-05-10T07:54:09;98899.22;;;15.25;48.44
76128;BME280;64873;50.102;14.434;2023-05-10T07:56:35;98899.25;;;15.30;48.25
76128;BME280;64873;50.102;14.434;2023-05-10T07:59:02;98903.59;;;15.31;47.98
76128;BME280;64873;50.102;14.434;2023-05-10T08:01:33;98883.63;;;15.27;48.09
76128;BME280;64873;50.102;14.434;2023-05-10T08:03:59;98890.94;;;15.31;48.24
76128;BME280;64873;50.102;14.434;2023-05-10T08:06:25;98888.47;;;15.30;48.35
76128;BME280;64873;50.102;14.434;2023-05-10T08:08:55;98883.50;;;15.43;48.15
76128;BME280;64873;50.102;14.434;2023-05-10T08:11:21;98889.25;;;15.57;48.21
76128;BME280;64873;50.102;14.434;2023-05-10T08:13:48;98888.53;;;15.67;48.06
76128;BME280;64873;50.102;14.434;2023-05-10T08:16:14;98885.47;;;15.58;48.11
76128;BME280;64873;50.102;14.434;2023-05-10T08:18:39;98888.44;;;15.57;48.14
76128;BME280;64873;50.102;14.434;2023-05-10T08:21:05;98891.16;;;15.62;48.03
76128;BME280;64873;50.102;14.434;2023-05-10T08:23:31;98896.94;;;15.76;47.77
76128;BME280;64873;50.102;14.434;2023-05-10T08:25:56;98872.16;;;15.73;47.80
76128;BME280;64873;50.102;14.434;2023-05-10T08:28:22;98889.47;;;15.88;47.34
76128;BME280;64873;50.102;14.434;2023-05-10T08:30:47;98893.38;;;16.07;47.14
76128;BME280;64873;50.102;14.434;2023-05-10T08:33:13;98884.75;;;16.15;46.80
76128;BME280;64873;50.102;14.434;2023-05-10T08:35:38;98892.28;;;16.08;46.61
76128;BME280;64873;50.102;14.434;2023-05-10T08:38:04;98894.19;;;16.18;46.90
76128;BME280;64873;50.102;14.434;2023-05-10T08:40:29;98897.53;;;16.30;46.61
76128;BME280;64873;50.102;14.434;2023-05-10T08:42:58;98896.16;;;16.27;46.45
76128;BME280;64873;50.102;14.434;2023-05-10T08:45:32;98890.72;;;16.22;46.68
76128;BME280;64873;50.102;14.434;2023-05-10T08:47:59;98885.09;;;16.29;46.02
76128;BME280;64873;50.102;14.434;2023-05-10T08:50:26;98888.28;;;16.21;46.66
76128;BME280;64873;50.102;14.434;2023-05-10T08:52:55;98889.69;;;16.34;46.33
76128;BME280;64873;50.102;14.434;2023-05-10T08:55:23;98889.22;;;16.52;46.32
76128;BME280;64873;50.102;14.434;2023-05-10T08:57:49;98889.81;;;16.69;45.87
76128;BME280;64873;50.102;14.434;2023-05-10T09:00:15;98875.78;;;16.67;45.49
76128;BME280;64873;50.102;14.434;2023-05-10T09:02:42;98883.59;;;16.53;45.79
76128;BME280;64873;50.102;14.434;2023-05-10T09:05:09;98877.41;;;16.68;45.59
76128;BME280;64873;50.102;14.434;2023-05-10T09:07:35;98879.66;;;16.97;45.07
76128;BME280;64873;50.102;14.434;2023-05-10T09:10:02;98888.84;;;16.96;45.41
76128;BME280;64873;50.102;14.434;2023-05-10T09:12:28;98872.09;;;16.99;45.22
76128;BME280;64873;50.102;14.434;2023-05-10T09:14:54;98882.91;;;17.19;44.70
76128;BME280;64873;50.102;14.434;2023-05-10T09:17:22;98875.88;;;17.23;44.77
76128;BME280;64873;50.102;14.434;2023-05-10T09:19:48;98874.25;;;17.17;44.47
76128;BME280;64873;50.102;14.434;2023-05-10T09:22:14;98878.03;;;17.52;44.40
76128;BME280;64873;50.102;14.434;2023-05-10T09:24:39;98886.69;;;17.49;44.57
76128;BME280;64873;50.102;14.434;2023-05-10T09:27:10;98879.13;;;17.51;43.83
76128;BME280;64873;50.102;14.434;2023-05-10T09:29:42;98881.81;;;17.61;43.30
76128;BME280;64873;50.102;14.434;2023-05-10T09:32:07;98879.38;;;17.29;44.35
76128;BME280;64873;50.102;14.434;2023-05-10T09:34:33;98875.06;;;17.38;44.20
76128;BME280;64873;50.102;14.434;2023-05-10T09:37:02;98886.13;;;17.57;44.00
76128;BME280;64873;50.102;14.434;2023-05-10T09:39:35;98882.63;;;17.67;43.87
76128;BME280;64873;50.102;14.434;2023-05-10T09:42:11;98875.31;;;17.52;44.12
76128;BME280;64873;50.102;14.434;2023-05-10T09:44:36;98880.19;;;17.55;44.02
76128;BME280;64873;50.102;14.434;2023-05-10T09:47:03;98871.53;;;17.63;43.84
76128;BME280;64873;50.102;14.434;2023-05-10T09:49:29;98868.03;;;17.78;43.41
76128;BME280;64873;50.102;14.434;2023-05-10T09:52:05;98867.22;;;17.77;43.63
76128;BME280;64873;50.102;14.434;2023-05-10T09:54:31;98869.88;;;17.93;43.15
76128;BME280;64873;50.102;14.434;2023-05-10T09:56:57;98860.94;;;17.97;42.63
76128;BME280;64873;50.102;14.434;2023-05-10T09:59:25;98858.22;;;18.13;42.13
76128;BME280;64873;50.102;14.434;2023-05-10T10:01:52;98873.03;;;18.25;42.26
76128;BME280;64873;50.102;14.434;2023-05-10T10:04:19;98874.84;;;18.40;42.69
76128;BME280;64873;50.102;14.434;2023-05-10T10:06:45;98876.38;;;18.61;42.71
76128;BME280;64873;50.102;14.434;2023-05-10T10:09:10;98876.91;;;18.69;42.12
76128;BME280;64873;50.102;14.434;2023-05-10T10:11:38;98869.50;;;18.84;41.79
76128;BME280;64873;50.102;14.434;2023-05-10T10:14:05;98872.66;;;18.97;42.07
76128;BME280;64873;50.102;14.434;2023-05-10T10:16:31;98865.09;;;18.94;41.14
76128;BME280;64873;50.102;14.434;2023-05-10T10:18:57;98867.88;;;18.83;41.48
76128;BME280;64873;50.102;14.434;2023-05-10T10:21:23;98870.63;;;18.78;41.43
76128;BME280;64873;50.102;14.434;2023-05-10T10:23:49;98863.78;;;18.86;41.06
76128;BME280;64873;50.102;14.434;2023-05-10T10:26:17;98865.56;;;19.06;41.00
76128;BME280;64873;50.102;14.434;2023-05-10T10:34:04;98855.22;;;19.13;40.49
76128;BME280;64873;50.102;14.434;2023-05-10T10:36:30;98859.97;;;18.92;40.74
76128;BME280;64873;50.102;14.434;2023-05-10T10:39:02;98862.72;;;19.21;40.23
76128;BME280;64873;50.102;14.434;2023-05-10T10:41:39;98858.25;;;18.57;40.77
76128;BME280;64873;50.102;14.434;2023-05-10T10:44:41;98858.75;;;18.64;41.05
76128;BME280;64873;50.102;14.434;2023-05-10T10:52:33;98848.81;;;18.99;40.48
76128;BME280;64873;50.102;14.434;2023-05-10T10:55:07;98841.22;;;19.01;40.32
76128;BME280;64873;50.102;14.434;2023-05-10T11:02:48;98840.00;;;19.17;39.19
76128;BME280;64873;50.102;14.434;2023-05-10T11:08:07;98841.47;;;19.04;39.70
76128;BME280;64873;50.102;14.434;2023-05-10T11:10:33;98827.56;;;19.16;39.57
76128;BME280;64873;50.102;14.434;2023-05-10T11:13:07;98835.00;;;19.00;39.73
76128;BME280;64873;50.102;14.434;2023-05-10T11:15:40;98834.50;;;19.56;39.84
76128;BME280;64873;50.102;14.434;2023-05-10T11:20:50;98822.47;;;19.38;39.42
76128;BME280;64873;50.102;14.434;2023-05-10T11:23:16;98831.63;;;19.48;39.33
76128;BME280;64873;50.102;14.434;2023-05-10T11:25:43;98834.78;;;19.60;39.13
76128;BME280;64873;50.102;14.434;2023-05-10T11:28:09;98829.88;;;19.86;38.86
76128;BME280;64873;50.102;14.434;2023-05-10T11:30:36;98827.84;;;19.43;39.40
76128;BME280;64873;50.102;14.434;2023-05-10T11:33:02;98825.84;;;19.83;38.81
76128;BME280;64873;50.102;14.434;2023-05-10T11:35:27;98827.56;;;19.74;38.69
76128;BME280;64873;50.102;14.434;2023-05-10T11:37:53;98819.72;;;20.20;38.19
76128;BME280;64873;50.102;14.434;2023-05-10T11:40:18;98828.28;;;20.28;38.23
76128;BME280;64873;50.102;14.434;2023-05-10T11:42:44;98827.06;;;19.96;38.57
76128;BME280;64873;50.102;14.434;2023-05-10T11:45:10;98822.03;;;20.08;37.85
76128;BME280;64873;50.102;14.434;2023-05-10T11:47:36;98833.53;;;20.43;37.95
76128;BME280;64873;50.102;14.434;2023-05-10T11:50:02;98823.75;;;20.23;37.60
76128;BME280;64873;50.102;14.434;2023-05-10T11:52:28;98813.69;;;20.47;38.46
76128;BME280;64873;50.102;14.434;2023-05-10T11:54:54;98822.66;;;20.24;37.54
76128;BME280;64873;50.102;14.434;2023-05-10T11:57:21;98822.84;;;20.09;37.57
76128;BME280;64873;50.102;14.434;2023-05-10T11:59:53;98829.53;;;19.92;37.88
76128;BME280;64873;50.102;14.434;2023-05-10T12:02:29;98830.81;;;20.00;38.09
76128;BME280;64873;50.102;14.434;2023-05-10T12:04:55;98835.28;;;20.10;37.97
76128;BME280;64873;50.102;14.434;2023-05-10T12:07:21;98813.84;;;19.89;38.15
76128;BME280;64873;50.102;14.434;2023-05-10T12:10:25;98834.41;;;19.95;38.23
76128;BME280;64873;50.102;14.434;2023-05-10T12:12:52;98838.19;;;19.70;38.59
76128;BME280;64873;50.102;14.434;2023-05-10T12:15:18;98834.38;;;19.72;38.42
76128;BME280;64873;50.102;14.434;2023-05-10T12:17:45;98825.09;;;20.02;38.26
76128;BME280;64873;50.102;14.434;2023-05-10T12:20:19;98839.06;;;20.57;37.52
76128;BME280;64873;50.102;14.434;2023-05-10T12:25:11;98839.84;;;21.14;36.18
76128;BME280;64873;50.102;14.434;2023-05-10T12:27:37;98840.34;;;21.16;36.51
76128;BME280;64873;50.102;14.434;2023-05-10T12:30:03;98850.72;;;21.14;36.27
76128;BME280;64873;50.102;14.434;2023-05-10T12:32:39;98841.28;;;20.31;37.77
76128;BME280;64873;50.102;14.434;2023-05-10T12:35:06;98848.00;;;19.90;38.67
76128;BME280;64873;50.102;14.434;2023-05-10T12:37:31;98845.75;;;19.74;39.00
76128;BME280;64873;50.102;14.434;2023-05-10T12:40:01;98837.78;;;19.58;39.12
76128;BME280;64873;50.102;14.434;2023-05-10T12:42:27;98838.19;;;19.70;39.33
76128;BME280;64873;50.102;14.434;2023-05-10T12:44:56;98847.59;;;19.78;39.27
76128;BME280;64873;50.102;14.434;2023-05-10T12:47:22;98832.09;;;20.08;38.18
76128;BME280;64873;50.102;14.434;2023-05-10T12:49:47;98838.31;;;19.84;38.67
76128;BME280;64873;50.102;14.434;2023-05-10T12:52:12;98842.94;;;19.84;38.92
76128;BME280;64873;50.102;14.434;2023-05-10T12:54:38;98844.09;;;20.02;38.98
76128;BME280;64873;50.102;14.434;2023-05-10T12:57:03;98845.69;;;20.27;38.72
76128;BME280;64873;50.102;14.434;2023-05-10T12:59:28;98840.47;;;20.54;38.23
76128;BME280;64873;50.102;14.434;2023-05-10T13:01:54;98841.84;;;20.52;37.83
76128;BME280;64873;50.102;14.434;2023-05-10T13:04:19;98854.34;;;20.90;37.90
76128;BME280;64873;50.102;14.434;2023-05-10T13:06:45;98848.75;;;21.00;37.69
76128;BME280;64873;50.102;14.434;2023-05-10T13:09:10;98847.72;;;20.96;37.47
76128;BME280;64873;50.102;14.434;2023-05-10T13:11:36;98850.63;;;21.19;37.16
76128;BME280;64873;50.102;14.434;2023-05-10T13:14:02;98850.13;;;21.36;36.81
76128;BME280;64873;50.102;14.434;2023-05-10T13:16:28;98845.78;;;21.16;37.70
76128;BME280;64873;50.102;14.434;2023-05-10T13:18:53;98852.34;;;20.96;38.22
76128;BME280;64873;50.102;14.434;2023-05-10T13:21:19;98854.75;;;21.35;37.59
76128;BME280;64873;50.102;14.434;2023-05-10T13:23:44;98850.94;;;20.98;38.18
76128;BME280;64873;50.102;14.434;2023-05-10T13:26:10;98850.09;;;20.84;38.57
76128;BME280;64873;50.102;14.434;2023-05-10T13:28:35;98849.41;;;20.73;38.60
76128;BME280;64873;50.102;14.434;2023-05-10T13:31:00;98840.47;;;20.54;39.09